sensor_id;sensor_type;location;lat;lon;timestamp;P1;durP1;ratioP1;P2;durP2;ratioP2
16502;SDS011;53067;48.114;11.694;2022-08-19T00:01:54;5.65;;;5.25;;
16502;SDS011;53067;48.114;11.694;2022-08-19T00:04:25;4.90;;;4.60;;
16502;SDS011;53067;48.114;11.694;2022-08-19T00:06:54;5.33;;;4.90;;
16502;SDS011;53067;48.114;11.694;2022-08-19T00:09:22;4.50;;;4.20;;
16502;SDS011;53067;48.114;11.694;2022-08-19T00:11:51;4.92;;;4.55;;
16502;SDS011;53067;48.114;11.694;2022-08-19T00:14:21;4.45;;;4.10;;
16502;SDS011;53067;48.114;11.694;2022-08-19T00:16:50;4.80;;;4.40;;
16502;SDS011;53067;48.114;11.694;2022-08-19T00:22:06;4.53;;;4.22;;
16502;SDS011;53067;48.114;11.694;2022-08-19T00:24:34;4.33;;;3.87;;
16502;SDS011;53067;48.114;11.694;2022-08-19T00:27:04;4.25;;;3.95;;
16502;SDS011;53067;48.114;11.694;2022-08-19T00:29:31;4.10;;;3.80;;
16502;SDS011;53067;48.114;11.694;2022-08-19T00:31:59;4.42;;;4.12;;
16502;SDS011;53067;48.114;11.694;2022-08-19T00:34:27;4.53;;;4.22;;
16502;SDS011;53067;48.114;11.694;2022-08-19T00:36:55;4.90;;;4.50;;
16502;SDS011;53067;48.114;11.694;2022-08-19T00:39:23;4.85;;;4.50;;
16502;SDS011;53067;48.114;11.694;2022-08-19T00:41:51;3.92;;;3.62;;
16502;SDS011;53067;48.114;11.694;2022-08-19T00:44:20;5.40;;;5.00;;
16502;SDS011;53067;48.114;11.694;2022-08-19T00:46:50;4.73;;;4.37;;
16502;SDS011;53067;48.114;11.694;2022-08-19T00:49:20;5.50;;;5.10;;
16502;SDS011;53067;48.114;11.694;2022-08-19T00:51:54;5.03;;;4.62;;
16502;SDS011;53067;48.114;11.694;2022-08-19T00:54:23;5.33;;;4.92;;
16502;SDS011;53067;48.114;11.694;2022-08-19T00:56:52;5.10;;;4.70;;
16502;SDS011;53067;48.114;11.694;2022-08-19T00:59:20;4.97;;;4.53;;
16502;SDS011;53067;48.114;11.694;2022-08-19T01:01:48;5.10;;;4.70;;
16502;SDS011;53067;48.114;11.694;2022-08-19T01:04:16;4.60;;;4.30;;
16502;SDS011;53067;48.114;11.694;2022-08-19T01:06:43;4.90;;;4.47;;
16502;SDS011;53067;48.114;11.694;2022-08-19T01:09:11;5.55;;;5.12;;
16502;SDS011;53067;48.114;11.694;2022-08-19T01:11:39;5.47;;;5.08;;
16502;SDS011;53067;48.114;11.694;2022-08-19T01:14:09;5.45;;;5.05;;
16502;SDS011;53067;48.114;11.694;2022-08-19T01:16:38;5.37;;;4.97;;
16502;SDS011;53067;48.114;11.694;2022-08-19T01:19:12;6.30;;;5.70;;
16502;SDS011;53067;48.114;11.694;2022-08-19T01:21:40;6.30;;;5.12;;
16502;SDS011;53067;48.114;11.694;2022-08-19T01:24:08;5.80;;;5.40;;
16502;SDS011;53067;48.114;11.694;2022-08-19T01:26:40;7.55;;;6.00;;
16502;SDS011;53067;48.114;11.694;2022-08-19T01:29:10;6.00;;;5.53;;
16502;SDS011;53067;48.114;11.694;2022-08-19T01:31:38;5.55;;;5.10;;
16502;SDS011;53067;48.114;11.694;2022-08-19T01:34:06;6.00;;;5.50;;
16502;SDS011;53067;48.114;11.694;2022-08-19T01:36:42;5.80;;;5.40;;
16502;SDS011;53067;48.114;11.694;2022-08-19T01:39:27;5.87;;;5.42;;
16502;SDS011;53067;48.114;11.694;2022-08-19T01:41:55;6.08;;;5.58;;
16502;SDS011;53067;48.114;11.694;2022-08-19T01:44:22;5.40;;;4.90;;
16502;SDS011;53067;48.114;11.694;2022-08-19T01:46:50;5.33;;;4.85;;
16502;SDS011;53067;48.114;11.694;2022-08-19T01:49:20;5.72;;;5.22;;
16502;SDS011;53067;48.114;11.694;2022-08-19T01:51:49;5.45;;;5.05;;
16502;SDS011;53067;48.114;11.694;2022-08-19T01:54:17;5.60;;;5.20;;
16502;SDS011;53067;48.114;11.694;2022-08-19T01:56:46;4.78;;;4.47;;
16502;SDS011;53067;48.114;11.694;2022-08-19T01:59:16;5.22;;;4.83;;
16502;SDS011;53067;48.114;11.694;2022-08-19T02:01:46;4.87;;;4.58;;
16502;SDS011;53067;48.114;11.694;2022-08-19T02:04:13;4.95;;;4.55;;
16502;SDS011;53067;48.114;11.694;2022-08-19T02:06:41;5.00;;;4.62;;
16502;SDS011;53067;48.114;11.694;2022-08-19T02:09:09;5.28;;;4.90;;
16502;SDS011;53067;48.114;11.694;2022-08-19T02:11:37;5.05;;;4.65;;
16502;SDS011;53067;48.114;11.694;2022-08-19T02:14:05;4.58;;;4.28;;
16502;SDS011;53067;48.114;11.694;2022-08-19T02:16:34;4.40;;;4.00;;
16502;SDS011;53067;48.114;11.694;2022-08-19T02:19:03;5.08;;;4.67;;
16502;SDS011;53067;48.114;11.694;2022-08-19T02:21:30;5.30;;;4.80;;
16502;SDS011;53067;48.114;11.694;2022-08-19T02:23:59;5.05;;;4.55;;
16502;SDS011;53067;48.114;11.694;2022-08-19T02:26:26;4.28;;;3.98;;
16502;SDS011;53067;48.114;11.694;2022-08-19T02:28:54;4.53;;;4.22;;
16502;SDS011;53067;48.114;11.694;2022-08-19T02:31:23;4.37;;;4.08;;
16502;SDS011;53067;48.114;11.694;2022-08-19T02:33:51;4.42;;;4.03;;
16502;SDS011;53067;48.114;11.694;2022-08-19T02:36:19;4.08;;;3.83;;
16502;SDS011;53067;48.114;11.694;2022-08-19T02:38:47;3.83;;;3.58;;
16502;SDS011;53067;48.114;11.694;2022-08-19T02:41:19;3.90;;;3.60;;
16502;SDS011;53067;48.114;11.694;2022-08-19T02:43:48;4.33;;;4.03;;
16502;SDS011;53067;48.114;11.694;2022-08-19T02:46:17;3.58;;;3.37;;
16502;SDS011;53067;48.114;11.694;2022-08-19T02:48:51;4.37;;;3.98;;
16502;SDS011;53067;48.114;11.694;2022-08-19T02:51:21;4.30;;;4.00;;
16502;SDS011;53067;48.114;11.694;2022-08-19T02:53:50;4.33;;;4.03;;
16502;SDS011;53067;48.114;11.694;2022-08-19T02:56:19;5.17;;;4.70;;
16502;SDS011;53067;48.114;11.694;2022-08-19T02:58:48;4.22;;;3.92;;
16502;SDS011;53067;48.114;11.694;2022-08-19T03:03:58;4.50;;;4.17;;
16502;SDS011;53067;48.114;11.694;2022-08-19T03:06:28;4.65;;;4.35;;
16502;SDS011;53067;48.114;11.694;2022-08-19T03:08:56;4.62;;;4.28;;
16502;SDS011;53067;48.114;11.694;2022-08-19T03:11:26;4.53;;;4.22;;
16502;SDS011;53067;48.114;11.694;2022-08-19T03:13:55;4.30;;;3.90;;
16502;SDS011;53067;48.114;11.694;2022-08-19T03:16:25;4.72;;;4.42;;
16502;SDS011;53067;48.114;11.694;2022-08-19T03:18:55;4.95;;;4.62;;
16502;SDS011;53067;48.114;11.694;2022-08-19T03:21:27;5.33;;;4.87;;
16502;SDS011;53067;48.114;11.694;2022-08-19T03:24:15;5.03;;;4.62;;
16502;SDS011;53067;48.114;11.694;2022-08-19T03:26:45;4.80;;;4.40;;
16502;SDS011;53067;48.114;11.694;2022-08-19T03:29:14;4.60;;;4.30;;
16502;SDS011;53067;48.114;11.694;2022-08-19T03:31:43;4.50;;;4.20;;
16502;SDS011;53067;48.114;11.694;2022-08-19T03:34:14;4.58;;;4.28;;
16502;SDS011;53067;48.114;11.694;2022-08-19T03:36:48;4.47;;;4.15;;
16502;SDS011;53067;48.114;11.694;2022-08-19T03:39:16;4.97;;;4.58;;
16502;SDS011;53067;48.114;11.694;2022-08-19T03:41:44;4.95;;;4.50;;
16502;SDS011;53067;48.114;11.694;2022-08-19T03:44:13;4.90;;;4.50;;
16502;SDS011;53067;48.114;11.694;2022-08-19T03:46:43;5.05;;;4.65;;
16502;SDS011;53067;48.114;11.694;2022-08-19T03:49:12;4.42;;;4.12;;
16502;SDS011;53067;48.114;11.694;2022-08-19T03:51:39;5.17;;;4.78;;
16502;SDS011;53067;48.114;11.694;2022-08-19T03:54:09;5.28;;;4.87;;
16502;SDS011;53067;48.114;11.694;2022-08-19T03:56:39;4.87;;;4.55;;
16502;SDS011;53067;48.114;11.694;2022-08-19T03:59:10;4.37;;;4.00;;
16502;SDS011;53067;48.114;11.694;2022-08-19T04:01:39;4.65;;;4.35;;
16502;SDS011;53067;48.114;11.694;2022-08-19T04:04:06;4.45;;;4.05;;
16502;SDS011;53067;48.114;11.694;2022-08-19T04:06:35;4.42;;;4.03;;
16502;SDS011;53067;48.114;11.694;2022-08-19T04:09:05;4.45;;;4.05;;
16502;SDS011;53067;48.114;11.694;2022-08-19T04:11:35;4.47;;;4.17;;
16502;SDS011;53067;48.114;11.694;2022-08-19T04:14:09;5.03;;;4.30;;
16502;SDS011;53067;48.114;11.694;2022-08-19T04:16:38;4.83;;;4.42;;
16502;SDS011;53067;48.114;11.694;2022-08-19T04:19:06;5.05;;;4.65;;
16502;SDS011;53067;48.114;11.694;2022-08-19T04:21:33;5.03;;;4.62;;
16502;SDS011;53067;48.114;11.694;2022-08-19T04:24:02;4.35;;;3.95;;
16502;SDS011;53067;48.114;11.694;2022-08-19T04:26:31;4.50;;;4.12;;
16502;SDS011;53067;48.114;11.694;2022-08-19T04:29:01;6.53;;;4.17;;
16502;SDS011;53067;48.114;11.694;2022-08-19T04:31:31;4.72;;;4.40;;
16502;SDS011;53067;48.114;11.694;2022-08-19T04:34:03;4.10;;;3.80;;
16502;SDS011;53067;48.114;11.694;2022-08-19T04:36:33;4.10;;;3.75;;
16502;SDS011;53067;48.114;11.694;2022-08-19T04:39:21;4.67;;;4.37;;
16502;SDS011;53067;48.114;11.694;2022-08-19T04:41:52;4.37;;;3.98;;
16502;SDS011;53067;48.114;11.694;2022-08-19T04:44:38;4.58;;;4.17;;
16502;SDS011;53067;48.114;11.694;2022-08-19T04:47:05;4.62;;;4.22;;
16502;SDS011;53067;48.114;11.694;2022-08-19T04:49:33;4.17;;;3.87;;
16502;SDS011;53067;48.114;11.694;2022-08-19T04:52:01;4.70;;;4.40;;
16502;SDS011;53067;48.114;11.694;2022-08-19T04:54:29;4.55;;;4.17;;
16502;SDS011;53067;48.114;11.694;2022-08-19T04:56:56;3.95;;;3.65;;
16502;SDS011;53067;48.114;11.694;2022-08-19T04:59:24;4.92;;;4.42;;
16502;SDS011;53067;48.114;11.694;2022-08-19T05:01:51;4.50;;;4.10;;
16502;SDS011;53067;48.114;11.694;2022-08-19T05:04:19;4.15;;;3.75;;
16502;SDS011;53067;48.114;11.694;2022-08-19T05:06:48;4.42;;;4.12;;
16502;SDS011;53067;48.114;11.694;2022-08-19T05:09:16;4.20;;;3.90;;
16502;SDS011;53067;48.114;11.694;2022-08-19T05:11:45;4.60;;;4.12;;
16502;SDS011;53067;48.114;11.694;2022-08-19T05:14:13;4.67;;;4.28;;
16502;SDS011;53067;48.114;11.694;2022-08-19T05:16:41;4.03;;;3.72;;
16502;SDS011;53067;48.114;11.694;2022-08-19T05:19:09;4.60;;;4.22;;
16502;SDS011;53067;48.114;11.694;2022-08-19T05:21:55;4.87;;;4.47;;
16502;SDS011;53067;48.114;11.694;2022-08-19T05:24:40;4.80;;;4.50;;
16502;SDS011;53067;48.114;11.694;2022-08-19T05:27:28;6.28;;;4.92;;
16502;SDS011;53067;48.114;11.694;2022-08-19T05:29:56;5.30;;;4.90;;
16502;SDS011;53067;48.114;11.694;2022-08-19T05:32:23;5.28;;;4.78;;
16502;SDS011;53067;48.114;11.694;2022-08-19T05:34:51;4.45;;;4.15;;
16502;SDS011;53067;48.114;11.694;2022-08-19T05:37:19;4.93;;;4.53;;
16502;SDS011;53067;48.114;11.694;2022-08-19T05:39:48;4.30;;;4.00;;
16502;SDS011;53067;48.114;11.694;2022-08-19T05:42:15;4.85;;;4.45;;
16502;SDS011;53067;48.114;11.694;2022-08-19T05:44:45;5.25;;;4.85;;
16502;SDS011;53067;48.114;11.694;2022-08-19T05:47:14;5.40;;;4.90;;
16502;SDS011;53067;48.114;11.694;2022-08-19T05:49:42;5.58;;;5.00;;
16502;SDS011;53067;48.114;11.694;2022-08-19T05:52:11;5.78;;;5.28;;
16502;SDS011;53067;48.114;11.694;2022-08-19T05:54:41;5.20;;;4.80;;
16502;SDS011;53067;48.114;11.694;2022-08-19T05:57:10;4.80;;;4.42;;
16502;SDS011;53067;48.114;11.694;2022-08-19T05:59:38;5.62;;;5.12;;
16502;SDS011;53067;48.114;11.694;2022-08-19T06:02:05;8.78;;;5.12;;
16502;SDS011;53067;48.114;11.694;2022-08-19T06:04:33;5.10;;;4.70;;
16502;SDS011;53067;48.114;11.694;2022-08-19T06:07:01;5.10;;;4.70;;
16502;SDS011;53067;48.114;11.694;2022-08-19T06:09:29;5.10;;;4.70;;
16502;SDS011;53067;48.114;11.694;2022-08-19T06:11:58;5.58;;;4.97;;
16502;SDS011;53067;48.114;11.694;2022-08-19T06:14:29;6.10;;;5.60;;
16502;SDS011;53067;48.114;11.694;2022-08-19T06:16:58;5.72;;;5.15;;
16502;SDS011;53067;48.114;11.694;2022-08-19T06:19:28;5.97;;;5.47;;
16502;SDS011;53067;48.114;11.694;2022-08-19T06:21:57;6.03;;;5.22;;
16502;SDS011;53067;48.114;11.694;2022-08-19T06:24:26;5.80;;;5.30;;
16502;SDS011;53067;48.114;11.694;2022-08-19T06:26:56;5.30;;;4.90;;
16502;SDS011;53067;48.114;11.694;2022-08-19T06:29:25;6.12;;;5.53;;
16502;SDS011;53067;48.114;11.694;2022-08-19T06:31:56;5.97;;;5.47;;
16502;SDS011;53067;48.114;11.694;2022-08-19T06:34:25;6.95;;;6.30;;
16502;SDS011;53067;48.114;11.694;2022-08-19T06:36:55;7.17;;;6.50;;
16502;SDS011;53067;48.114;11.694;2022-08-19T06:39:26;8.85;;;7.42;;
16502;SDS011;53067;48.114;11.694;2022-08-19T06:41:57;8.00;;;7.25;;
16502;SDS011;53067;48.114;11.694;2022-08-19T06:44:27;8.28;;;7.58;;
16502;SDS011;53067;48.114;11.694;2022-08-19T06:46:58;8.88;;;8.05;;
16502;SDS011;53067;48.114;11.694;2022-08-19T06:49:27;9.13;;;8.00;;
16502;SDS011;53067;48.114;11.694;2022-08-19T06:51:57;8.78;;;7.97;;
16502;SDS011;53067;48.114;11.694;2022-08-19T06:54:25;9.45;;;8.55;;
16502;SDS011;53067;48.114;11.694;2022-08-19T06:56:56;8.25;;;7.50;;
16502;SDS011;53067;48.114;11.694;2022-08-19T06:59:33;9.13;;;8.20;;
16502;SDS011;53067;48.114;11.694;2022-08-19T07:02:02;8.45;;;7.67;;
16502;SDS011;53067;48.114;11.694;2022-08-19T07:04:32;8.35;;;7.60;;
16502;SDS011;53067;48.114;11.694;2022-08-19T07:07:03;8.28;;;7.47;;
16502;SDS011;53067;48.114;11.694;2022-08-19T07:09:33;9.13;;;8.23;;
16502;SDS011;53067;48.114;11.694;2022-08-19T07:12:03;8.60;;;7.83;;
16502;SDS011;53067;48.114;11.694;2022-08-19T07:14:32;9.35;;;8.40;;
16502;SDS011;53067;48.114;11.694;2022-08-19T07:17:05;9.73;;;8.85;;
16502;SDS011;53067;48.114;11.694;2022-08-19T07:19:34;9.88;;;8.90;;
16502;SDS011;53067;48.114;11.694;2022-08-19T07:22:04;10.85;;;9.38;;
16502;SDS011;53067;48.114;11.694;2022-08-19T07:24:33;10.58;;;8.98;;
16502;SDS011;53067;48.114;11.694;2022-08-19T07:27:02;10.70;;;9.48;;
16502;SDS011;53067;48.114;11.694;2022-08-19T07:29:32;10.82;;;9.73;;
16502;SDS011;53067;48.114;11.694;2022-08-19T07:32:01;10.20;;;9.30;;
16502;SDS011;53067;48.114;11.694;2022-08-19T07:34:31;11.73;;;9.60;;
16502;SDS011;53067;48.114;11.694;2022-08-19T07:37:07;10.65;;;9.63;;
16502;SDS011;53067;48.114;11.694;2022-08-19T07:39:33;11.33;;;10.18;;
16502;SDS011;53067;48.114;11.694;2022-08-19T07:42:05;11.65;;;10.23;;
16502;SDS011;53067;48.114;11.694;2022-08-19T07:44:50;10.93;;;9.93;;
16502;SDS011;53067;48.114;11.694;2022-08-19T07:47:18;11.90;;;10.68;;
16502;SDS011;53067;48.114;11.694;2022-08-19T07:49:45;10.35;;;9.35;;
16502;SDS011;53067;48.114;11.694;2022-08-19T07:52:14;11.30;;;10.25;;
16502;SDS011;53067;48.114;11.694;2022-08-19T07:54:42;11.15;;;10.08;;
16502;SDS011;53067;48.114;11.694;2022-08-19T07:57:10;11.83;;;10.63;;
16502;SDS011;53067;48.114;11.694;2022-08-19T07:59:37;11.33;;;10.23;;
16502;SDS011;53067;48.114;11.694;2022-08-19T08:02:05;12.00;;;10.88;;
16502;SDS011;53067;48.114;11.694;2022-08-19T08:04:34;14.40;;;11.50;;
16502;SDS011;53067;48.114;11.694;2022-08-19T08:07:19;12.80;;;11.50;;
16502;SDS011;53067;48.114;11.694;2022-08-19T08:10:06;13.83;;;11.95;;
16502;SDS011;53067;48.114;11.694;2022-08-19T08:12:54;11.57;;;10.48;;
16502;SDS011;53067;48.114;11.694;2022-08-19T08:15:21;12.23;;;10.75;;
16502;SDS011;53067;48.114;11.694;2022-08-19T08:17:49;13.03;;;11.73;;
16502;SDS011;53067;48.114;11.694;2022-08-19T08:20:17;12.35;;;11.12;;
16502;SDS011;53067;48.114;11.694;2022-08-19T08:22:45;12.90;;;11.60;;
16502;SDS011;53067;48.114;11.694;2022-08-19T08:25:27;12.33;;;11.12;;
16502;SDS011;53067;48.114;11.694;2022-08-19T08:27:55;12.37;;;11.03;;
16502;SDS011;53067;48.114;11.694;2022-08-19T08:30:25;12.73;;;11.40;;
16502;SDS011;53067;48.114;11.694;2022-08-19T08:32:54;11.18;;;10.08;;
16502;SDS011;53067;48.114;11.694;2022-08-19T08:35:22;12.25;;;10.90;;
16502;SDS011;53067;48.114;11.694;2022-08-19T08:37:52;12.03;;;10.93;;
16502;SDS011;53067;48.114;11.694;2022-08-19T08:43:23;12.60;;;11.25;;
16502;SDS011;53067;48.114;11.694;2022-08-19T08:45:59;13.72;;;12.35;;
16502;SDS011;53067;48.114;11.694;2022-08-19T08:48:49;14.00;;;12.40;;
16502;SDS011;53067;48.114;11.694;2022-08-19T08:51:32;13.05;;;11.90;;
16502;SDS011;53067;48.114;11.694;2022-08-19T08:54:04;14.35;;;12.20;;
16502;SDS011;53067;48.114;11.694;2022-08-19T08:56:33;15.15;;;12.73;;
16502;SDS011;53067;48.114;11.694;2022-08-19T08:59:07;16.40;;;12.93;;
16502;SDS011;53067;48.114;11.694;2022-08-19T09:01:49;14.47;;;12.98;;
16502;SDS011;53067;48.114;11.694;2022-08-19T09:04:17;13.20;;;11.90;;
16502;SDS011;53067;48.114;11.694;2022-08-19T09:06:49;13.45;;;12.13;;
16502;SDS011;53067;48.114;11.694;2022-08-19T09:15:03;14.07;;;12.60;;
16502;SDS011;53067;48.114;11.694;2022-08-19T09:17:34;13.83;;;12.43;;
16502;SDS011;53067;48.114;11.694;2022-08-19T09:22:45;13.40;;;12.00;;
16502;SDS011;53067;48.114;11.694;2022-08-19T09:25:16;13.53;;;12.13;;
16502;SDS011;53067;48.114;11.694;2022-08-19T09:27:47;14.20;;;12.70;;
16502;SDS011;53067;48.114;11.694;2022-08-19T09:30:24;14.03;;;12.33;;
16502;SDS011;53067;48.114;11.694;2022-08-19T09:32:49;15.10;;;13.30;;
16502;SDS011;53067;48.114;11.694;2022-08-19T09:35:21;13.43;;;12.03;;
16502;SDS011;53067;48.114;11.694;2022-08-19T09:40:37;13.53;;;12.13;;
16502;SDS011;53067;48.114;11.694;2022-08-19T09:43:05;12.65;;;11.22;;
16502;SDS011;53067;48.114;11.694;2022-08-19T09:45:33;14.13;;;11.03;;
16502;SDS011;53067;48.114;11.694;2022-08-19T09:48:01;13.28;;;11.70;;
16502;SDS011;53067;48.114;11.694;2022-08-19T09:50:28;13.78;;;11.48;;
16502;SDS011;53067;48.114;11.694;2022-08-19T09:52:58;11.50;;;10.38;;
16502;SDS011;53067;48.114;11.694;2022-08-19T09:55:25;12.07;;;10.88;;
16502;SDS011;53067;48.114;11.694;2022-08-19T09:57:53;11.60;;;10.50;;
16502;SDS011;53067;48.114;11.694;2022-08-19T10:00:21;10.40;;;9.50;;
16502;SDS011;53067;48.114;11.694;2022-08-19T10:02:48;10.38;;;9.48;;
16502;SDS011;53067;48.114;11.694;2022-08-19T10:05:16;10.53;;;9.45;;
16502;SDS011;53067;48.114;11.694;2022-08-19T10:08:03;10.25;;;9.33;;
16502;SDS011;53067;48.114;11.694;2022-08-19T10:10:52;10.40;;;9.45;;
16502;SDS011;53067;48.114;11.694;2022-08-19T10:13:27;10.03;;;9.05;;
16502;SDS011;53067;48.114;11.694;2022-08-19T10:15:53;9.78;;;8.88;;
16502;SDS011;53067;48.114;11.694;2022-08-19T10:18:22;10.58;;;9.55;;
16502;SDS011;53067;48.114;11.694;2022-08-19T10:21:11;9.53;;;8.63;;
16502;SDS011;53067;48.114;11.694;2022-08-19T10:23:43;10.48;;;9.38;;
16502;SDS011;53067;48.114;11.694;2022-08-19T10:26:17;9.75;;;8.80;;
16502;SDS011;53067;48.114;11.694;2022-08-19T10:28:43;10.72;;;8.13;;
16502;SDS011;53067;48.114;11.694;2022-08-19T10:31:12;8.93;;;8.13;;
16502;SDS011;53067;48.114;11.694;2022-08-19T10:33:41;8.30;;;7.60;;
16502;SDS011;53067;48.114;11.694;2022-08-19T10:36:10;8.40;;;7.65;;
16502;SDS011;53067;48.114;11.694;2022-08-19T10:38:46;7.97;;;7.28;;
16502;SDS011;53067;48.114;11.694;2022-08-19T10:41:17;7.62;;;7.03;;
16502;SDS011;53067;48.114;11.694;2022-08-19T10:43:49;7.25;;;6.65;;
16502;SDS011;53067;48.114;11.694;2022-08-19T10:46:18;7.30;;;6.70;;
16502;SDS011;53067;48.114;11.694;2022-08-19T10:48:45;7.42;;;6.72;;
16502;SDS011;53067;48.114;11.694;2022-08-19T10:51:13;7.35;;;6.67;;
16502;SDS011;53067;48.114;11.694;2022-08-19T10:53:59;7.28;;;6.65;;
16502;SDS011;53067;48.114;11.694;2022-08-19T10:56:27;7.97;;;7.37;;
16502;SDS011;53067;48.114;11.694;2022-08-19T10:59:14;7.78;;;7.17;;
16502;SDS011;53067;48.114;11.694;2022-08-19T11:01:43;7.70;;;7.00;;
16502;SDS011;53067;48.114;11.694;2022-08-19T11:04:11;7.67;;;7.08;;
16502;SDS011;53067;48.114;11.694;2022-08-19T11:06:41;7.55;;;6.95;;
16502;SDS011;53067;48.114;11.694;2022-08-19T11:09:11;7.05;;;6.40;;
16502;SDS011;53067;48.114;11.694;2022-08-19T11:11:38;7.35;;;6.53;;
16502;SDS011;53067;48.114;11.694;2022-08-19T11:14:12;7.05;;;6.35;;
16502;SDS011;53067;48.114;11.694;2022-08-19T11:16:37;7.75;;;6.15;;
16502;SDS011;53067;48.114;11.694;2022-08-19T11:19:05;6.20;;;5.70;;
16502;SDS011;53067;48.114;11.694;2022-08-19T11:21:35;7.20;;;6.60;;
16502;SDS011;53067;48.114;11.694;2022-08-19T11:24:06;7.55;;;6.92;;
16502;SDS011;53067;48.114;11.694;2022-08-19T11:26:36;6.42;;;5.95;;
16502;SDS011;53067;48.114;11.694;2022-08-19T11:29:05;7.03;;;6.42;;
16502;SDS011;53067;48.114;11.694;2022-08-19T11:31:35;7.22;;;6.62;;
16502;SDS011;53067;48.114;11.694;2022-08-19T11:34:05;7.53;;;6.97;;
16502;SDS011;53067;48.114;11.694;2022-08-19T11:36:36;7.22;;;6.72;;
16502;SDS011;53067;48.114;11.694;2022-08-19T11:39:07;6.90;;;6.30;;
16502;SDS011;53067;48.114;11.694;2022-08-19T11:41:36;6.10;;;5.55;;
16502;SDS011;53067;48.114;11.694;2022-08-19T11:44:03;6.10;;;5.58;;
16502;SDS011;53067;48.114;11.694;2022-08-19T11:46:33;5.70;;;5.30;;
16502;SDS011;53067;48.114;11.694;2022-08-19T11:49:02;5.83;;;5.28;;
16502;SDS011;53067;48.114;11.694;2022-08-19T11:51:33;6.10;;;5.50;;
16502;SDS011;53067;48.114;11.694;2022-08-19T11:54:00;5.62;;;5.22;;
16502;SDS011;53067;48.114;11.694;2022-08-19T11:56:30;5.72;;;5.22;;
16502;SDS011;53067;48.114;11.694;2022-08-19T11:59:00;5.22;;;4.83;;
16502;SDS011;53067;48.114;11.694;2022-08-19T12:01:28;5.42;;;5.08;;
16502;SDS011;53067;48.114;11.694;2022-08-19T12:03:57;6.92;;;6.30;;
16502;SDS011;53067;48.114;11.694;2022-08-19T12:06:26;7.35;;;6.65;;
16502;SDS011;53067;48.114;11.694;2022-08-19T12:08:55;6.75;;;6.20;;
16502;SDS011;53067;48.114;11.694;2022-08-19T12:11:24;6.33;;;5.83;;
16502;SDS011;53067;48.114;11.694;2022-08-19T12:13:52;5.30;;;4.90;;
16502;SDS011;53067;48.114;11.694;2022-08-19T12:16:22;4.35;;;4.08;;
16502;SDS011;53067;48.114;11.694;2022-08-19T12:18:52;4.62;;;4.33;;
16502;SDS011;53067;48.114;11.694;2022-08-19T12:21:22;4.25;;;3.95;;
16502;SDS011;53067;48.114;11.694;2022-08-19T12:23:53;4.65;;;4.15;;
16502;SDS011;53067;48.114;11.694;2022-08-19T12:26:21;4.08;;;3.77;;
16502;SDS011;53067;48.114;11.694;2022-08-19T12:28:49;4.12;;;3.83;;
16502;SDS011;53067;48.114;11.694;2022-08-19T12:31:17;3.47;;;3.27;;
16502;SDS011;53067;48.114;11.694;2022-08-19T12:33:45;3.00;;;2.90;;
16502;SDS011;53067;48.114;11.694;2022-08-19T12:36:14;2.67;;;2.50;;
16502;SDS011;53067;48.114;11.694;2022-08-19T12:38:43;2.08;;;1.98;;
16502;SDS011;53067;48.114;11.694;2022-08-19T12:41:13;1.87;;;1.77;;
16502;SDS011;53067;48.114;11.694;2022-08-19T12:43:44;2.10;;;2.00;;
16502;SDS011;53067;48.114;11.694;2022-08-19T12:46:14;1.30;;;1.30;;
16502;SDS011;53067;48.114;11.694;2022-08-19T12:48:41;1.42;;;1.32;;
16502;SDS011;53067;48.114;11.694;2022-08-19T12:51:13;1.40;;;1.30;;
16502;SDS011;53067;48.114;11.694;2022-08-19T12:53:41;1.10;;;1.10;;
16502;SDS011;53067;48.114;11.694;2022-08-19T12:56:09;0.95;;;0.95;;
16502;SDS011;53067;48.114;11.694;2022-08-19T12:58:40;1.35;;;1.10;;
16502;SDS011;53067;48.114;11.694;2022-08-19T13:01:10;0.98;;;0.98;;
16502;SDS011;53067;48.114;11.694;2022-08-19T13:03:38;1.87;;;1.22;;
16502;SDS011;53067;48.114;11.694;2022-08-19T13:06:07;1.00;;;1.00;;
16502;SDS011;53067;48.114;11.694;2022-08-19T13:08:35;1.20;;;1.20;;
16502;SDS011;53067;48.114;11.694;2022-08-19T13:11:12;0.90;;;0.90;;
16502;SDS011;53067;48.114;11.694;2022-08-19T13:13:38;1.00;;;1.00;;
16502;SDS011;53067;48.114;11.694;2022-08-19T13:16:08;0.95;;;0.95;;
16502;SDS011;53067;48.114;11.694;2022-08-19T13:18:37;1.30;;;1.30;;
16502;SDS011;53067;48.114;11.694;2022-08-19T13:21:06;1.72;;;1.15;;
16502;SDS011;53067;48.114;11.694;2022-08-19T13:23:37;1.10;;;1.10;;
16502;SDS011;53067;48.114;11.694;2022-08-19T13:26:09;1.02;;;1.02;;
16502;SDS011;53067;48.114;11.694;2022-08-19T13:28:56;1.12;;;1.12;;
16502;SDS011;53067;48.114;11.694;2022-08-19T13:31:42;1.17;;;1.17;;
16502;SDS011;53067;48.114;11.694;2022-08-19T13:34:29;1.62;;;1.12;;
16502;SDS011;53067;48.114;11.694;2022-08-19T13:36:59;1.42;;;1.20;;
16502;SDS011;53067;48.114;11.694;2022-08-19T13:39:30;1.50;;;1.50;;
16502;SDS011;53067;48.114;11.694;2022-08-19T13:41:59;1.37;;;1.30;;
16502;SDS011;53067;48.114;11.694;2022-08-19T13:44:27;1.10;;;1.10;;
16502;SDS011;53067;48.114;11.694;2022-08-19T13:47:02;1.30;;;1.20;;
16502;SDS011;53067;48.114;11.694;2022-08-19T13:49:51;1.50;;;1.40;;
16502;SDS011;53067;48.114;11.694;2022-08-19T13:52:19;1.25;;;1.10;;
16502;SDS011;53067;48.114;11.694;2022-08-19T13:54:47;1.22;;;1.22;;
16502;SDS011;53067;48.114;11.694;2022-08-19T13:57:14;1.30;;;1.20;;
16502;SDS011;53067;48.114;11.694;2022-08-19T13:59:42;1.20;;;1.20;;
16502;SDS011;53067;48.114;11.694;2022-08-19T14:02:09;1.40;;;1.40;;
16502;SDS011;53067;48.114;11.694;2022-08-19T14:04:37;1.42;;;1.42;;
16502;SDS011;53067;48.114;11.694;2022-08-19T14:07:04;1.95;;;1.12;;
16502;SDS011;53067;48.114;11.694;2022-08-19T14:09:32;1.30;;;1.30;;
16502;SDS011;53067;48.114;11.694;2022-08-19T14:11:59;1.30;;;1.30;;
16502;SDS011;53067;48.114;11.694;2022-08-19T14:14:27;1.52;;;1.42;;
16502;SDS011;53067;48.114;11.694;2022-08-19T14:16:54;1.62;;;1.52;;
16502;SDS011;53067;48.114;11.694;2022-08-19T14:19:22;2.00;;;1.90;;
16502;SDS011;53067;48.114;11.694;2022-08-19T14:21:50;1.85;;;1.75;;
16502;SDS011;53067;48.114;11.694;2022-08-19T14:24:17;1.92;;;1.82;;
16502;SDS011;53067;48.114;11.694;2022-08-19T14:26:45;2.00;;;1.90;;
16502;SDS011;53067;48.114;11.694;2022-08-19T14:29:12;2.15;;;2.05;;
16502;SDS011;53067;48.114;11.694;2022-08-19T14:31:40;1.92;;;1.82;;
16502;SDS011;53067;48.114;11.694;2022-08-19T14:34:09;1.72;;;1.62;;
16502;SDS011;53067;48.114;11.694;2022-08-19T14:36:38;2.00;;;1.90;;
16502;SDS011;53067;48.114;11.694;2022-08-19T14:39:07;2.20;;;2.10;;
16502;SDS011;53067;48.114;11.694;2022-08-19T14:41:35;1.92;;;1.82;;
16502;SDS011;53067;48.114;11.694;2022-08-19T14:44:04;2.10;;;2.00;;
16502;SDS011;53067;48.114;11.694;2022-08-19T14:46:32;2.12;;;2.02;;
16502;SDS011;53067;48.114;11.694;2022-08-19T14:48:59;2.20;;;2.10;;
16502;SDS011;53067;48.114;11.694;2022-08-19T14:51:27;2.30;;;2.20;;
16502;SDS011;53067;48.114;11.694;2022-08-19T14:53:55;2.40;;;2.30;;
16502;SDS011;53067;48.114;11.694;2022-08-19T14:56:25;2.35;;;2.25;;
16502;SDS011;53067;48.114;11.694;2022-08-19T14:58:53;2.52;;;2.33;;
16502;SDS011;53067;48.114;11.694;2022-08-19T15:01:23;2.92;;;2.72;;
16502;SDS011;53067;48.114;11.694;2022-08-19T15:03:52;2.40;;;2.30;;
16502;SDS011;53067;48.114;11.694;2022-08-19T15:06:21;2.30;;;2.20;;
16502;SDS011;53067;48.114;11.694;2022-08-19T15:11:37;2.42;;;2.33;;